sensor_id;sensor_type;location;lat;lon;timestamp;P1;durP1;ratioP1;P2;durP2;ratioP2
50393;SDS011;36308;46.312;25.288;2023-02-17T00:00:09;71.18;;;36.13;;
50393;SDS011;36308;46.312;25.288;2023-02-17T00:02:36;81.50;;;38.22;;
50393;SDS011;36308;46.312;25.288;2023-02-17T00:05:02;76.68;;;36.90;;
50393;SDS011;36308;46.312;25.288;2023-02-17T00:07:32;77.95;;;37.88;;
50393;SDS011;36308;46.312;25.288;2023-02-17T00:09:58;74.38;;;37.40;;
50393;SDS011;36308;46.312;25.288;2023-02-17T00:12:24;71.53;;;35.33;;
50393;SDS011;36308;46.312;25.288;2023-02-17T00:14:50;83.75;;;39.33;;
50393;SDS011;36308;46.312;25.288;2023-02-17T00:17:15;100.32;;;45.17;;
50393;SDS011;36308;46.312;25.288;2023-02-17T00:19:41;98.78;;;46.47;;
50393;SDS011;36308;46.312;25.288;2023-02-17T00:22:07;101.95;;;47.00;;
50393;SDS011;36308;46.312;25.288;2023-02-17T00:24:33;89.13;;;43.97;;
50393;SDS011;36308;46.312;25.288;2023-02-17T00:27:01;86.22;;;41.05;;
50393;SDS011;36308;46.312;25.288;2023-02-17T00:29:26;67.55;;;34.33;;
50393;SDS011;36308;46.312;25.288;2023-02-17T00:31:52;70.47;;;34.05;;
50393;SDS011;36308;46.312;25.288;2023-02-17T00:34:18;66.28;;;33.22;;
50393;SDS011;36308;46.312;25.288;2023-02-17T00:36:44;71.18;;;35.03;;
50393;SDS011;36308;46.312;25.288;2023-02-17T00:39:10;62.28;;;32.00;;
50393;SDS011;36308;46.312;25.288;2023-02-17T00:41:38;59.92;;;28.80;;
50393;SDS011;36308;46.312;25.288;2023-02-17T00:44:04;59.63;;;29.27;;
50393;SDS011;36308;46.312;25.288;2023-02-17T00:46:29;57.00;;;29.10;;
50393;SDS011;36308;46.312;25.288;2023-02-17T00:48:55;56.20;;;29.42;;
50393;SDS011;36308;46.312;25.288;2023-02-17T00:51:21;55.63;;;29.50;;
50393;SDS011;36308;46.312;25.288;2023-02-17T00:53:47;61.42;;;30.45;;
50393;SDS011;36308;46.312;25.288;2023-02-17T00:56:13;62.47;;;31.48;;
50393;SDS011;36308;46.312;25.288;2023-02-17T00:58:39;59.88;;;31.75;;
50393;SDS011;36308;46.312;25.288;2023-02-17T01:01:05;59.28;;;31.33;;
50393;SDS011;36308;46.312;25.288;2023-02-17T01:03:32;56.10;;;30.60;;
50393;SDS011;36308;46.312;25.288;2023-02-17T01:05:57;53.92;;;28.63;;
50393;SDS011;36308;46.312;25.288;2023-02-17T01:08:23;55.70;;;29.15;;
50393;SDS011;36308;46.312;25.288;2023-02-17T01:10:50;56.20;;;27.48;;
50393;SDS011;36308;46.312;25.288;2023-02-17T01:13:16;56.85;;;27.50;;
50393;SDS011;36308;46.312;25.288;2023-02-17T01:15:44;54.38;;;28.05;;
50393;SDS011;36308;46.312;25.288;2023-02-17T01:18:15;55.10;;;27.80;;
50393;SDS011;36308;46.312;25.288;2023-02-17T01:20:42;62.17;;;29.30;;
50393;SDS011;36308;46.312;25.288;2023-02-17T01:23:09;53.70;;;27.17;;
50393;SDS011;36308;46.312;25.288;2023-02-17T01:25:45;57.92;;;27.27;;
50393;SDS011;36308;46.312;25.288;2023-02-17T01:28:13;56.95;;;28.00;;
50393;SDS011;36308;46.312;25.288;2023-02-17T01:30:42;51.83;;;27.00;;
50393;SDS011;36308;46.312;25.288;2023-02-17T01:33:08;55.08;;;28.77;;
50393;SDS011;36308;46.312;25.288;2023-02-17T01:35:34;60.38;;;27.02;;
50393;SDS011;36308;46.312;25.288;2023-02-17T01:37:59;51.83;;;26.80;;
50393;SDS011;36308;46.312;25.288;2023-02-17T01:40:25;53.00;;;27.20;;
50393;SDS011;36308;46.312;25.288;2023-02-17T01:42:50;52.45;;;25.98;;
50393;SDS011;36308;46.312;25.288;2023-02-17T01:47:42;49.22;;;25.77;;
50393;SDS011;36308;46.312;25.288;2023-02-17T01:50:09;50.38;;;26.58;;
50393;SDS011;36308;46.312;25.288;2023-02-17T01:52:35;51.17;;;25.48;;
50393;SDS011;36308;46.312;25.288;2023-02-17T01:55:06;50.15;;;26.13;;
50393;SDS011;36308;46.312;25.288;2023-02-17T01:57:34;51.25;;;26.25;;
50393;SDS011;36308;46.312;25.288;2023-02-17T02:00:06;51.42;;;24.85;;
50393;SDS011;36308;46.312;25.288;2023-02-17T02:02:33;54.13;;;25.67;;
50393;SDS011;36308;46.312;25.288;2023-02-17T02:04:59;45.50;;;25.17;;
50393;SDS011;36308;46.312;25.288;2023-02-17T02:07:25;52.90;;;25.98;;
50393;SDS011;36308;46.312;25.288;2023-02-17T02:09:55;51.28;;;25.88;;
50393;SDS011;36308;46.312;25.288;2023-02-17T02:12:29;50.20;;;25.70;;
50393;SDS011;36308;46.312;25.288;2023-02-17T02:15:04;46.80;;;23.88;;
50393;SDS011;36308;46.312;25.288;2023-02-17T02:34:28;48.95;;;24.42;;
50393;SDS011;36308;46.312;25.288;2023-02-17T02:37:04;48.65;;;24.35;;
50393;SDS011;36308;46.312;25.288;2023-02-17T02:39:38;48.25;;;24.15;;
50393;SDS011;36308;46.312;25.288;2023-02-17T02:42:09;57.60;;;27.20;;
50393;SDS011;36308;46.312;25.288;2023-02-17T02:44:38;58.58;;;30.08;;
50393;SDS011;36308;46.312;25.288;2023-02-17T02:47:04;55.97;;;29.58;;
50393;SDS011;36308;46.312;25.288;2023-02-17T02:49:50;52.30;;;27.92;;
50393;SDS011;36308;46.312;25.288;2023-02-17T02:52:21;55.30;;;27.95;;
50393;SDS011;36308;46.312;25.288;2023-02-17T02:55:10;49.63;;;24.50;;
50393;SDS011;36308;46.312;25.288;2023-02-17T03:02:44;43.05;;;22.80;;
50393;SDS011;36308;46.312;25.288;2023-02-17T03:07:58;46.45;;;23.45;;
50393;SDS011;36308;46.312;25.288;2023-02-17T03:10:27;50.97;;;26.33;;
50393;SDS011;36308;46.312;25.288;2023-02-17T03:12:53;48.45;;;24.50;;
50393;SDS011;36308;46.312;25.288;2023-02-17T03:15:24;46.88;;;24.42;;
50393;SDS011;36308;46.312;25.288;2023-02-17T03:17:56;49.40;;;25.23;;
50393;SDS011;36308;46.312;25.288;2023-02-17T03:20:23;49.53;;;24.35;;
50393;SDS011;36308;46.312;25.288;2023-02-17T03:22:50;49.00;;;24.20;;
50393;SDS011;36308;46.312;25.288;2023-02-17T03:25:16;46.08;;;23.70;;
50393;SDS011;36308;46.312;25.288;2023-02-17T03:27:41;47.88;;;23.67;;
50393;SDS011;36308;46.312;25.288;2023-02-17T03:30:07;48.70;;;24.52;;
50393;SDS011;36308;46.312;25.288;2023-02-17T03:32:34;49.03;;;24.83;;
50393;SDS011;36308;46.312;25.288;2023-02-17T03:35:00;51.85;;;26.13;;
50393;SDS011;36308;46.312;25.288;2023-02-17T03:37:26;48.42;;;24.52;;
50393;SDS011;36308;46.312;25.288;2023-02-17T03:39:51;52.35;;;26.05;;
50393;SDS011;36308;46.312;25.288;2023-02-17T03:42:16;55.15;;;27.30;;
50393;SDS011;36308;46.312;25.288;2023-02-17T03:44:42;49.42;;;26.20;;
50393;SDS011;36308;46.312;25.288;2023-02-17T03:47:07;49.88;;;26.40;;
50393;SDS011;36308;46.312;25.288;2023-02-17T03:49:33;50.78;;;24.92;;
50393;SDS011;36308;46.312;25.288;2023-02-17T03:51:58;53.50;;;25.73;;
50393;SDS011;36308;46.312;25.288;2023-02-17T03:54:24;50.63;;;25.50;;
50393;SDS011;36308;46.312;25.288;2023-02-17T03:56:50;50.25;;;25.30;;
50393;SDS011;36308;46.312;25.288;2023-02-17T03:59:16;47.53;;;23.45;;
50393;SDS011;36308;46.312;25.288;2023-02-17T04:01:41;50.72;;;23.20;;
50393;SDS011;36308;46.312;25.288;2023-02-17T04:04:07;50.75;;;23.77;;
50393;SDS011;36308;46.312;25.288;2023-02-17T04:06:33;48.72;;;25.75;;
50393;SDS011;36308;46.312;25.288;2023-02-17T04:08:58;55.17;;;29.85;;
50393;SDS011;36308;46.312;25.288;2023-02-17T04:11:24;54.45;;;27.38;;
50393;SDS011;36308;46.312;25.288;2023-02-17T04:13:49;70.72;;;36.17;;
50393;SDS011;36308;46.312;25.288;2023-02-17T04:16:15;52.22;;;27.55;;
50393;SDS011;36308;46.312;25.288;2023-02-17T04:18:41;45.53;;;24.73;;
50393;SDS011;36308;46.312;25.288;2023-02-17T04:21:07;47.45;;;23.27;;
50393;SDS011;36308;46.312;25.288;2023-02-17T04:23:33;46.72;;;22.88;;
50393;SDS011;36308;46.312;25.288;2023-02-17T04:25:59;40.83;;;22.67;;
50393;SDS011;36308;46.312;25.288;2023-02-17T04:28:25;44.17;;;22.60;;
50393;SDS011;36308;46.312;25.288;2023-02-17T04:30:51;48.63;;;23.85;;
50393;SDS011;36308;46.312;25.288;2023-02-17T04:33:17;56.30;;;30.35;;
50393;SDS011;36308;46.312;25.288;2023-02-17T04:35:43;115.95;;;56.10;;
50393;SDS011;36308;46.312;25.288;2023-02-17T04:38:08;261.83;;;111.03;;
50393;SDS011;36308;46.312;25.288;2023-02-17T04:40:35;120.30;;;58.75;;
50393;SDS011;36308;46.312;25.288;2023-02-17T04:43:01;161.77;;;69.35;;
50393;SDS011;36308;46.312;25.288;2023-02-17T04:45:27;90.97;;;42.17;;
50393;SDS011;36308;46.312;25.288;2023-02-17T04:47:52;86.25;;;38.45;;
50393;SDS011;36308;46.312;25.288;2023-02-17T04:50:18;80.43;;;38.00;;
50393;SDS011;36308;46.312;25.288;2023-02-17T04:52:44;78.88;;;36.70;;
50393;SDS011;36308;46.312;25.288;2023-02-17T04:55:09;77.25;;;37.35;;
50393;SDS011;36308;46.312;25.288;2023-02-17T04:57:35;73.60;;;35.95;;
50393;SDS011;36308;46.312;25.288;2023-02-17T05:00:01;59.50;;;31.65;;
50393;SDS011;36308;46.312;25.288;2023-02-17T05:02:27;60.13;;;31.10;;
50393;SDS011;36308;46.312;25.288;2023-02-17T05:04:54;55.45;;;29.63;;
50393;SDS011;36308;46.312;25.288;2023-02-17T05:07:20;60.75;;;30.25;;
50393;SDS011;36308;46.312;25.288;2023-02-17T05:09:46;59.40;;;31.52;;
50393;SDS011;36308;46.312;25.288;2023-02-17T05:12:11;54.40;;;29.63;;
50393;SDS011;36308;46.312;25.288;2023-02-17T05:14:37;66.05;;;32.92;;
50393;SDS011;36308;46.312;25.288;2023-02-17T05:17:02;60.40;;;31.48;;
50393;SDS011;36308;46.312;25.288;2023-02-17T05:19:28;62.55;;;30.98;;
50393;SDS011;36308;46.312;25.288;2023-02-17T05:21:53;61.08;;;28.85;;
50393;SDS011;36308;46.312;25.288;2023-02-17T05:24:19;63.78;;;32.47;;
50393;SDS011;36308;46.312;25.288;2023-02-17T05:26:44;64.30;;;31.85;;
50393;SDS011;36308;46.312;25.288;2023-02-17T05:29:10;57.08;;;30.00;;
50393;SDS011;36308;46.312;25.288;2023-02-17T05:31:35;57.83;;;30.45;;
50393;SDS011;36308;46.312;25.288;2023-02-17T05:34:01;64.00;;;30.52;;
50393;SDS011;36308;46.312;25.288;2023-02-17T05:36:27;62.40;;;32.95;;
50393;SDS011;36308;46.312;25.288;2023-02-17T05:38:52;62.97;;;30.77;;
50393;SDS011;36308;46.312;25.288;2023-02-17T05:41:18;61.28;;;33.08;;
50393;SDS011;36308;46.312;25.288;2023-02-17T05:43:44;73.30;;;36.25;;
50393;SDS011;36308;46.312;25.288;2023-02-17T05:46:11;73.95;;;38.05;;
50393;SDS011;36308;46.312;25.288;2023-02-17T05:48:36;70.07;;;36.97;;
50393;SDS011;36308;46.312;25.288;2023-02-17T05:51:02;61.67;;;33.45;;
50393;SDS011;36308;46.312;25.288;2023-02-17T05:53:27;58.63;;;29.33;;
50393;SDS011;36308;46.312;25.288;2023-02-17T05:55:53;49.53;;;28.85;;
50393;SDS011;36308;46.312;25.288;2023-02-17T05:58:18;55.92;;;29.88;;
50393;SDS011;36308;46.312;25.288;2023-02-17T06:00:44;65.45;;;34.08;;
50393;SDS011;36308;46.312;25.288;2023-02-17T06:03:10;81.78;;;42.58;;
50393;SDS011;36308;46.312;25.288;2023-02-17T06:05:36;86.20;;;45.72;;
50393;SDS011;36308;46.312;25.288;2023-02-17T06:08:02;138.63;;;59.13;;
50393;SDS011;36308;46.312;25.288;2023-02-17T06:10:28;83.47;;;41.58;;
50393;SDS011;36308;46.312;25.288;2023-02-17T06:12:53;72.20;;;37.55;;
50393;SDS011;36308;46.312;25.288;2023-02-17T06:15:18;89.70;;;43.70;;
50393;SDS011;36308;46.312;25.288;2023-02-17T06:17:44;97.38;;;49.97;;
50393;SDS011;36308;46.312;25.288;2023-02-17T06:20:10;100.97;;;49.70;;
50393;SDS011;36308;46.312;25.288;2023-02-17T06:22:35;106.03;;;52.92;;
50393;SDS011;36308;46.312;25.288;2023-02-17T06:25:01;102.90;;;49.65;;
50393;SDS011;36308;46.312;25.288;2023-02-17T06:27:27;78.82;;;43.70;;
50393;SDS011;36308;46.312;25.288;2023-02-17T06:29:52;73.55;;;38.42;;
50393;SDS011;36308;46.312;25.288;2023-02-17T06:32:17;80.30;;;40.38;;
50393;SDS011;36308;46.312;25.288;2023-02-17T06:34:43;75.32;;;36.67;;
50393;SDS011;36308;46.312;25.288;2023-02-17T06:37:08;381.83;;;131.02;;
50393;SDS011;36308;46.312;25.288;2023-02-17T06:39:34;164.45;;;68.97;;
50393;SDS011;36308;46.312;25.288;2023-02-17T06:41:59;99.82;;;47.70;;
50393;SDS011;36308;46.312;25.288;2023-02-17T06:44:25;88.53;;;43.40;;
50393;SDS011;36308;46.312;25.288;2023-02-17T06:46:51;97.35;;;48.58;;
50393;SDS011;36308;46.312;25.288;2023-02-17T06:49:16;159.27;;;75.25;;
50393;SDS011;36308;46.312;25.288;2023-02-17T06:51:42;136.20;;;66.82;;
50393;SDS011;36308;46.312;25.288;2023-02-17T06:54:07;120.78;;;61.80;;
50393;SDS011;36308;46.312;25.288;2023-02-17T06:56:33;111.72;;;53.55;;
50393;SDS011;36308;46.312;25.288;2023-02-17T06:59:00;121.75;;;59.15;;
50393;SDS011;36308;46.312;25.288;2023-02-17T07:01:26;106.18;;;52.38;;
50393;SDS011;36308;46.312;25.288;2023-02-17T07:03:52;111.07;;;53.30;;
50393;SDS011;36308;46.312;25.288;2023-02-17T07:06:19;108.88;;;53.83;;
50393;SDS011;36308;46.312;25.288;2023-02-17T07:08:45;119.68;;;60.85;;
50393;SDS011;36308;46.312;25.288;2023-02-17T07:11:11;129.73;;;64.47;;
50393;SDS011;36308;46.312;25.288;2023-02-17T07:13:38;150.90;;;73.63;;
50393;SDS011;36308;46.312;25.288;2023-02-17T07:16:05;154.90;;;76.88;;
50393;SDS011;36308;46.312;25.288;2023-02-17T07:18:31;170.63;;;80.72;;
50393;SDS011;36308;46.312;25.288;2023-02-17T07:20:57;161.57;;;77.72;;
50393;SDS011;36308;46.312;25.288;2023-02-17T07:23:22;162.13;;;79.20;;
50393;SDS011;36308;46.312;25.288;2023-02-17T07:25:48;157.23;;;78.90;;
50393;SDS011;36308;46.312;25.288;2023-02-17T07:28:14;153.10;;;74.82;;
50393;SDS011;36308;46.312;25.288;2023-02-17T07:30:40;157.85;;;77.53;;
50393;SDS011;36308;46.312;25.288;2023-02-17T07:33:06;141.32;;;73.03;;
50393;SDS011;36308;46.312;25.288;2023-02-17T07:35:32;128.82;;;65.93;;
50393;SDS011;36308;46.312;25.288;2023-02-17T07:37:59;153.25;;;75.18;;
50393;SDS011;36308;46.312;25.288;2023-02-17T07:40:26;199.48;;;102.25;;
50393;SDS011;36308;46.312;25.288;2023-02-17T07:42:52;219.73;;;110.35;;
50393;SDS011;36308;46.312;25.288;2023-02-17T07:45:18;218.32;;;115.82;;
50393;SDS011;36308;46.312;25.288;2023-02-17T07:47:44;224.15;;;116.45;;
50393;SDS011;36308;46.312;25.288;2023-02-17T07:50:09;198.45;;;102.85;;
50393;SDS011;36308;46.312;25.288;2023-02-17T07:52:36;207.95;;;106.32;;
50393;SDS011;36308;46.312;25.288;2023-02-17T07:55:02;222.18;;;113.95;;
50393;SDS011;36308;46.312;25.288;2023-02-17T07:57:28;223.38;;;116.50;;
50393;SDS011;36308;46.312;25.288;2023-02-17T07:59:54;211.55;;;112.30;;
50393;SDS011;36308;46.312;25.288;2023-02-17T08:02:19;244.55;;;122.75;;
50393;SDS011;36308;46.312;25.288;2023-02-17T08:04:45;249.13;;;125.15;;
50393;SDS011;36308;46.312;25.288;2023-02-17T08:07:10;227.30;;;116.05;;
50393;SDS011;36308;46.312;25.288;2023-02-17T08:09:36;230.98;;;122.65;;
50393;SDS011;36308;46.312;25.288;2023-02-17T08:12:20;279.30;;;140.75;;
50393;SDS011;36308;46.312;25.288;2023-02-17T08:15:04;267.45;;;143.70;;
50393;SDS011;36308;46.312;25.288;2023-02-17T08:17:31;177.38;;;92.80;;
50393;SDS011;36308;46.312;25.288;2023-02-17T08:19:57;156.38;;;81.70;;
50393;SDS011;36308;46.312;25.288;2023-02-17T08:22:23;118.25;;;63.17;;
50393;SDS011;36308;46.312;25.288;2023-02-17T08:24:48;102.07;;;56.45;;
50393;SDS011;36308;46.312;25.288;2023-02-17T08:27:15;93.32;;;48.60;;
50393;SDS011;36308;46.312;25.288;2023-02-17T08:29:41;79.43;;;42.45;;
50393;SDS011;36308;46.312;25.288;2023-02-17T08:32:06;77.18;;;41.28;;
50393;SDS011;36308;46.312;25.288;2023-02-17T08:34:32;101.45;;;53.38;;
50393;SDS011;36308;46.312;25.288;2023-02-17T08:37:00;187.57;;;102.70;;
50393;SDS011;36308;46.312;25.288;2023-02-17T08:39:27;200.15;;;109.53;;
50393;SDS011;36308;46.312;25.288;2023-02-17T08:41:53;186.57;;;103.53;;
50393;SDS011;36308;46.312;25.288;2023-02-17T08:44:19;186.05;;;100.22;;
50393;SDS011;36308;46.312;25.288;2023-02-17T08:46:46;183.88;;;96.18;;
50393;SDS011;36308;46.312;25.288;2023-02-17T08:49:14;188.93;;;101.93;;
50393;SDS011;36308;46.312;25.288;2023-02-17T08:51:41;202.68;;;105.65;;
50393;SDS011;36308;46.312;25.288;2023-02-17T08:54:07;171.95;;;93.93;;
50393;SDS011;36308;46.312;25.288;2023-02-17T08:56:34;164.07;;;91.45;;
50393;SDS011;36308;46.312;25.288;2023-02-17T08:59:01;182.07;;;100.97;;
50393;SDS011;36308;46.312;25.288;2023-02-17T09:01:27;180.57;;;96.22;;
50393;SDS011;36308;46.312;25.288;2023-02-17T09:03:52;173.10;;;100.13;;
50393;SDS011;36308;46.312;25.288;2023-02-17T09:06:20;171.73;;;95.63;;
50393;SDS011;36308;46.312;25.288;2023-02-17T09:08:46;184.30;;;103.32;;
50393;SDS011;36308;46.312;25.288;2023-02-17T09:11:12;179.88;;;103.07;;
50393;SDS011;36308;46.312;25.288;2023-02-17T09:13:41;218.13;;;121.75;;
50393;SDS011;36308;46.312;25.288;2023-02-17T09:16:07;204.13;;;118.03;;
50393;SDS011;36308;46.312;25.288;2023-02-17T09:18:33;169.25;;;99.50;;
50393;SDS011;36308;46.312;25.288;2023-02-17T09:21:03;159.50;;;93.50;;
50393;SDS011;36308;46.312;25.288;2023-02-17T09:23:33;138.45;;;80.93;;
50393;SDS011;36308;46.312;25.288;2023-02-17T09:26:08;156.65;;;84.43;;
50393;SDS011;36308;46.312;25.288;2023-02-17T09:28:35;160.93;;;90.25;;
50393;SDS011;36308;46.312;25.288;2023-02-17T09:31:11;182.20;;;100.43;;
50393;SDS011;36308;46.312;25.288;2023-02-17T09:33:37;171.95;;;97.40;;
50393;SDS011;36308;46.312;25.288;2023-02-17T09:36:04;160.25;;;87.30;;
50393;SDS011;36308;46.312;25.288;2023-02-17T09:38:31;173.98;;;98.10;;
50393;SDS011;36308;46.312;25.288;2023-02-17T09:40:59;167.55;;;98.40;;
50393;SDS011;36308;46.312;25.288;2023-02-17T09:43:33;165.50;;;90.18;;
50393;SDS011;36308;46.312;25.288;2023-02-17T09:46:00;171.52;;;92.40;;
50393;SDS011;36308;46.312;25.288;2023-02-17T09:48:32;173.30;;;97.35;;
50393;SDS011;36308;46.312;25.288;2023-02-17T09:51:11;171.52;;;96.30;;
50393;SDS011;36308;46.312;25.288;2023-02-17T09:57:33;151.70;;;87.55;;
50393;SDS011;36308;46.312;25.288;2023-02-17T10:00:14;197.23;;;106.30;;
50393;SDS011;36308;46.312;25.288;2023-02-17T10:05:29;121.22;;;66.50;;
50393;SDS011;36308;46.312;25.288;2023-02-17T10:08:09;82.53;;;47.30;;
50393;SDS011;36308;46.312;25.288;2023-02-17T10:10:51;67.43;;;35.35;;
50393;SDS011;36308;46.312;25.288;2023-02-17T10:13:21;46.05;;;24.98;;
50393;SDS011;36308;46.312;25.288;2023-02-17T10:15:50;64.18;;;34.75;;
50393;SDS011;36308;46.312;25.288;2023-02-17T10:18:32;60.53;;;30.45;;
50393;SDS011;36308;46.312;25.288;2023-02-17T10:21:11;61.80;;;32.95;;
50393;SDS011;36308;46.312;25.288;2023-02-17T10:23:46;60.92;;;34.22;;
50393;SDS011;36308;46.312;25.288;2023-02-17T10:28:50;48.55;;;27.25;;
50393;SDS011;36308;46.312;25.288;2023-02-17T10:31:30;46.47;;;27.52;;
50393;SDS011;36308;46.312;25.288;2023-02-17T10:34:03;48.17;;;27.67;;
50393;SDS011;36308;46.312;25.288;2023-02-17T10:37:10;52.72;;;28.25;;
50393;SDS011;36308;46.312;25.288;2023-02-17T10:39:49;55.03;;;30.67;;
50393;SDS011;36308;46.312;25.288;2023-02-17T10:42:24;54.38;;;29.17;;
50393;SDS011;36308;46.312;25.288;2023-02-17T10:44:51;57.72;;;31.02;;
50393;SDS011;36308;46.312;25.288;2023-02-17T10:47:22;55.40;;;31.48;;
50393;SDS011;36308;46.312;25.288;2023-02-17T10:49:51;58.72;;;32.30;;
50393;SDS011;36308;46.312;25.288;2023-02-17T10:52:22;54.25;;;32.45;;
50393;SDS011;36308;46.312;25.288;2023-02-17T10:54:59;98.47;;;46.63;;
50393;SDS011;36308;46.312;25.288;2023-02-17T10:57:31;67.28;;;35.20;;
50393;SDS011;36308;46.312;25.288;2023-02-17T11:00:01;100.07;;;55.85;;
50393;SDS011;36308;46.312;25.288;2023-02-17T11:02:40;119.85;;;65.38;;
50393;SDS011;36308;46.312;25.288;2023-02-17T11:05:19;114.95;;;64.47;;
50393;SDS011;36308;46.312;25.288;2023-02-17T11:07:45;129.77;;;74.80;;
50393;SDS011;36308;46.312;25.288;2023-02-17T11:10:19;114.20;;;64.90;;
50393;SDS011;36308;46.312;25.288;2023-02-17T11:12:48;84.55;;;48.20;;
50393;SDS011;36308;46.312;25.288;2023-02-17T11:15:18;105.65;;;64.30;;
50393;SDS011;36308;46.312;25.288;2023-02-17T11:17:46;123.05;;;75.35;;
50393;SDS011;36308;46.312;25.288;2023-02-17T11:22:38;145.18;;;86.18;;
50393;SDS011;36308;46.312;25.288;2023-02-17T11:25:21;136.38;;;73.72;;
50393;SDS011;36308;46.312;25.288;2023-02-17T11:27:50;125.85;;;74.15;;
50393;SDS011;36308;46.312;25.288;2023-02-17T11:30:20;116.07;;;68.75;;
50393;SDS011;36308;46.312;25.288;2023-02-17T11:32:47;106.55;;;63.10;;
50393;SDS011;36308;46.312;25.288;2023-02-17T11:35:21;93.45;;;56.22;;
50393;SDS011;36308;46.312;25.288;2023-02-17T11:38:12;93.38;;;57.25;;
50393;SDS011;36308;46.312;25.288;2023-02-17T11:40:54;89.72;;;55.67;;
50393;SDS011;36308;46.312;25.288;2023-02-17T11:43:25;88.68;;;55.78;;
50393;SDS011;36308;46.312;25.288;2023-02-17T11:51:42;100.18;;;59.92;;
50393;SDS011;36308;46.312;25.288;2023-02-17T11:54:52;103.25;;;59.25;;
50393;SDS011;36308;46.312;25.288;2023-02-17T12:00:01;94.72;;;58.97;;
50393;SDS011;36308;46.312;25.288;2023-02-17T12:05:21;95.40;;;59.15;;
50393;SDS011;36308;46.312;25.288;2023-02-17T12:19:08;73.38;;;46.45;;
50393;SDS011;36308;46.312;25.288;2023-02-17T12:34:52;92.30;;;54.28;;
50393;SDS011;36308;46.312;25.288;2023-02-17T12:37:24;84.65;;;50.90;;
50393;SDS011;36308;46.312;25.288;2023-02-17T12:40:04;80.03;;;50.67;;
50393;SDS011;36308;46.312;25.288;2023-02-17T12:42:41;83.47;;;48.53;;
50393;SDS011;36308;46.312;25.288;2023-02-17T12:45:17;97.28;;;48.83;;
50393;SDS011;36308;46.312;25.288;2023-02-17T12:47:51;78.03;;;50.10;;
50393;SDS011;36308;46.312;25.288;2023-02-17T12:50:27;77.13;;;48.97;;
50393;SDS011;36308;46.312;25.288;2023-02-17T12:52:58;80.10;;;50.20;;
50393;SDS011;36308;46.312;25.288;2023-02-17T12:58:11;74.10;;;46.30;;
50393;SDS011;36308;46.312;25.288;2023-02-17T13:00:51;76.30;;;44.97;;
50393;SDS011;36308;46.312;25.288;2023-02-17T13:03:21;75.30;;;46.33;;
50393;SDS011;36308;46.312;25.288;2023-02-17T13:08:26;97.45;;;56.13;;
50393;SDS011;36308;46.312;25.288;2023-02-17T13:11:02;74.78;;;46.33;;
50393;SDS011;36308;46.312;25.288;2023-02-17T13:13:30;78.40;;;45.58;;
50393;SDS011;36308;46.312;25.288;2023-02-17T13:18:37;73.85;;;45.53;;
50393;SDS011;36308;46.312;25.288;2023-02-17T13:24:14;74.57;;;46.88;;
50393;SDS011;36308;46.312;25.288;2023-02-17T13:26:39;65.25;;;41.08;;
50393;SDS011;36308;46.312;25.288;2023-02-17T13:31:43;71.65;;;44.60;;
50393;SDS011;36308;46.312;25.288;2023-02-17T13:34:30;78.22;;;45.90;;
50393;SDS011;36308;46.312;25.288;2023-02-17T13:37:15;77.78;;;47.15;;
50393;SDS011;36308;46.312;25.288;2023-02-17T13:42:47;99.78;;;53.15;;
50393;SDS011;36308;46.312;25.288;2023-02-17T13:50:56;78.13;;;45.22;;
50393;SDS011;36308;46.312;25.288;2023-02-17T13:56:37;81.03;;;48.55;;
50393;SDS011;36308;46.312;25.288;2023-02-17T13:59:06;74.32;;;45.35;;
50393;SDS011;36308;46.312;25.288;2023-02-17T14:01:37;73.45;;;43.92;;
50393;SDS011;36308;46.312;25.288;2023-02-17T14:04:14;76.97;;;47.58;;
50393;SDS011;36308;46.312;25.288;2023-02-17T14:06:43;73.93;;;45.75;;
50393;SDS011;36308;46.312;25.288;2023-02-17T14:09:19;74.85;;;44.75;;
50393;SDS011;36308;46.312;25.288;2023-02-17T14:11:55;85.97;;;50.38;;
50393;SDS011;36308;46.312;25.288;2023-02-17T14:14:22;80.72;;;47.72;;
50393;SDS011;36308;46.312;25.288;2023-02-17T14:17:06;90.57;;;46.47;;
50393;SDS011;36308;46.312;25.288;2023-02-17T14:19:44;75.50;;;46.78;;
50393;SDS011;36308;46.312;25.288;2023-02-17T14:25:10;84.82;;;47.08;;
50393;SDS011;36308;46.312;25.288;2023-02-17T14:27:44;74.80;;;43.88;;
50393;SDS011;36308;46.312;25.288;2023-02-17T14:30:12;73.88;;;44.55;;
50393;SDS011;36308;46.312;25.288;2023-02-17T14:35:52;73.25;;;44.08;;
50393;SDS011;36308;46.312;25.288;2023-02-17T14:38:31;66.85;;;41.58;;
50393;SDS011;36308;46.312;25.288;2023-02-17T14:41:00;68.93;;;40.95;;
50393;SDS011;36308;46.312;25.288;2023-02-17T14:43:26;66.65;;;40.33;;
50393;SDS011;36308;46.312;25.288;2023-02-17T14:45:52;65.43;;;39.83;;
50393;SDS011;36308;46.312;25.288;2023-02-17T14:48:18;62.78;;;38.15;;
50393;SDS011;36308;46.312;25.288;2023-02-17T14:50:44;60.95;;;38.35;;
50393;SDS011;36308;46.312;25.288;2023-02-17T14:53:15;67.28;;;40.40;;
50393;SDS011;36308;46.312;25.288;2023-02-17T14:56:12;80.85;;;48.25;;
50393;SDS011;36308;46.312;25.288;2023-02-17T14:58:36;75.88;;;46.38;;
50393;SDS011;36308;46.312;25.288;2023-02-17T15:01:02;72.75;;;43.53;;
50393;SDS011;36308;46.312;25.288;2023-02-17T15:03:29;246.82;;;107.57;;
50393;SDS011;36308;46.312;25.288;2023-02-17T15:05:56;298.25;;;127.95;;
50393;SDS011;36308;46.312;25.288;2023-02-17T15:08:29;310.77;;;133.30;;
50393;SDS011;36308;46.312;25.288;2023-02-17T15:10:57;325.70;;;139.90;;
50393;SDS011;36308;46.312;25.288;2023-02-17T15:13:23;144.90;;;70.70;;
50393;SDS011;36308;46.312;25.288;2023-02-17T15:15:49;179.43;;;82.40;;
50393;SDS011;36308;46.312;25.288;2023-02-17T15:18:15;297.85;;;134.15;;
50393;SDS011;36308;46.312;25.288;2023-02-17T15:20:43;196.50;;;95.80;;
50393;SDS011;36308;46.312;25.288;2023-02-17T15:23:14;97.13;;;53.45;;
50393;SDS011;36308;46.312;25.288;2023-02-17T15:25:45;181.07;;;93.43;;
50393;SDS011;36308;46.312;25.288;2023-02-17T15:28:16;169.40;;;90.28;;
50393;SDS011;36308;46.312;25.288;2023-02-17T15:30:49;159.88;;;77.15;;
50393;SDS011;36308;46.312;25.288;2023-02-17T15:33:18;113.07;;;62.97;;
50393;SDS011;36308;46.312;25.288;2023-02-17T15:35:46;126.95;;;68.90;;
50393;SDS011;36308;46.312;25.288;2023-02-17T15:38:15;104.18;;;59.63;;
50393;SDS011;36308;46.312;25.288;2023-02-17T15:40:40;98.35;;;59.30;;
50393;SDS011;36308;46.312;25.288;2023-02-17T15:43:08;92.45;;;55.95;;
50393;SDS011;36308;46.312;25.288;2023-02-17T15:45:46;100.00;;;55.88;;
50393;SDS011;36308;46.312;25.288;2023-02-17T15:48:25;72.38;;;46.78;;
50393;SDS011;36308;46.312;25.288;2023-02-17T15:50:54;66.90;;;41.08;;
50393;SDS011;36308;46.312;25.288;2023-02-17T15:53:20;72.72;;;45.63;;
50393;SDS011;36308;46.312;25.288;2023-02-17T15:55:46;74.68;;;44.22;;
50393;SDS011;36308;46.312;25.288;2023-02-17T15:58:14;90.88;;;51.72;;